sensor_id;sensor_type;location;lat;lon;timestamp;P1;durP1;ratioP1;P2;durP2;ratioP2
22417;SDS011;11376;50.932;4.442;2022-07-05T00:01:01;4.65;;;0.93;;
22417;SDS011;11376;50.932;4.442;2022-07-05T00:03:27;5.22;;;1.15;;
22417;SDS011;11376;50.932;4.442;2022-07-05T00:05:53;3.70;;;1.40;;
22417;SDS011;11376;50.932;4.442;2022-07-05T00:08:19;5.82;;;0.90;;
22417;SDS011;11376;50.932;4.442;2022-07-05T00:10:45;3.95;;;0.93;;
22417;SDS011;11376;50.932;4.442;2022-07-05T00:13:10;3.50;;;0.93;;
22417;SDS011;11376;50.932;4.442;2022-07-05T00:15:37;3.30;;;0.90;;
22417;SDS011;11376;50.932;4.442;2022-07-05T00:18:02;3.92;;;0.90;;
22417;SDS011;11376;50.932;4.442;2022-07-05T00:20:28;3.28;;;0.90;;
22417;SDS011;11376;50.932;4.442;2022-07-05T00:22:54;3.38;;;0.98;;
22417;SDS011;11376;50.932;4.442;2022-07-05T00:25:20;4.25;;;1.00;;
22417;SDS011;11376;50.932;4.442;2022-07-05T00:27:45;5.38;;;1.08;;
22417;SDS011;11376;50.932;4.442;2022-07-05T00:30:11;2.55;;;0.90;;
22417;SDS011;11376;50.932;4.442;2022-07-05T00:32:38;3.58;;;1.20;;
22417;SDS011;11376;50.932;4.442;2022-07-05T00:35:06;2.58;;;1.00;;
22417;SDS011;11376;50.932;4.442;2022-07-05T00:37:33;2.95;;;0.90;;
22417;SDS011;11376;50.932;4.442;2022-07-05T00:39:59;3.70;;;1.10;;
22417;SDS011;11376;50.932;4.442;2022-07-05T00:42:25;2.38;;;1.05;;
22417;SDS011;11376;50.932;4.442;2022-07-05T00:44:51;3.13;;;1.10;;
22417;SDS011;11376;50.932;4.442;2022-07-05T00:47:17;3.83;;;1.00;;
22417;SDS011;11376;50.932;4.442;2022-07-05T00:49:43;2.33;;;0.90;;
22417;SDS011;11376;50.932;4.442;2022-07-05T00:52:10;5.07;;;1.17;;
22417;SDS011;11376;50.932;4.442;2022-07-05T00:54:37;5.07;;;1.10;;
22417;SDS011;11376;50.932;4.442;2022-07-05T00:57:03;3.65;;;0.98;;
22417;SDS011;11376;50.932;4.442;2022-07-05T00:59:30;4.28;;;1.20;;
22417;SDS011;11376;50.932;4.442;2022-07-05T01:01:56;3.50;;;1.30;;
22417;SDS011;11376;50.932;4.442;2022-07-05T01:04:22;4.20;;;1.30;;
22417;SDS011;11376;50.932;4.442;2022-07-05T01:06:48;1.73;;;0.90;;
22417;SDS011;11376;50.932;4.442;2022-07-05T01:09:16;4.70;;;0.98;;
22417;SDS011;11376;50.932;4.442;2022-07-05T01:11:43;4.18;;;1.00;;
22417;SDS011;11376;50.932;4.442;2022-07-05T01:14:21;3.42;;;1.08;;
22417;SDS011;11376;50.932;4.442;2022-07-05T01:16:51;2.38;;;1.00;;
22417;SDS011;11376;50.932;4.442;2022-07-05T01:19:18;3.05;;;1.08;;
22417;SDS011;11376;50.932;4.442;2022-07-05T01:21:46;5.10;;;0.90;;
22417;SDS011;11376;50.932;4.442;2022-07-05T01:24:13;4.30;;;0.95;;
22417;SDS011;11376;50.932;4.442;2022-07-05T01:26:40;4.10;;;0.98;;
22417;SDS011;11376;50.932;4.442;2022-07-05T01:29:09;1.90;;;0.90;;
22417;SDS011;11376;50.932;4.442;2022-07-05T01:31:38;4.10;;;1.15;;
22417;SDS011;11376;50.932;4.442;2022-07-05T01:34:05;3.30;;;1.15;;
22417;SDS011;11376;50.932;4.442;2022-07-05T01:36:32;3.58;;;1.02;;
22417;SDS011;11376;50.932;4.442;2022-07-05T01:38:58;5.00;;;0.95;;
22417;SDS011;11376;50.932;4.442;2022-07-05T01:41:25;4.68;;;1.00;;
22417;SDS011;11376;50.932;4.442;2022-07-05T01:43:51;2.03;;;0.90;;
22417;SDS011;11376;50.932;4.442;2022-07-05T01:46:16;2.67;;;0.90;;
22417;SDS011;11376;50.932;4.442;2022-07-05T01:52:08;4.65;;;1.15;;
22417;SDS011;11376;50.932;4.442;2022-07-05T01:54:35;1.73;;;0.90;;
22417;SDS011;11376;50.932;4.442;2022-07-05T01:57:01;3.63;;;1.10;;
22417;SDS011;11376;50.932;4.442;2022-07-05T01:59:27;7.97;;;1.08;;
22417;SDS011;11376;50.932;4.442;2022-07-05T02:01:53;5.10;;;0.95;;
22417;SDS011;11376;50.932;4.442;2022-07-05T02:10:44;3.78;;;1.00;;
22417;SDS011;11376;50.932;4.442;2022-07-05T02:13:09;2.40;;;0.95;;
22417;SDS011;11376;50.932;4.442;2022-07-05T02:15:37;1.63;;;0.77;;
22417;SDS011;11376;50.932;4.442;2022-07-05T02:18:04;2.35;;;0.80;;
22417;SDS011;11376;50.932;4.442;2022-07-05T02:20:30;1.80;;;0.73;;
22417;SDS011;11376;50.932;4.442;2022-07-05T02:22:57;2.08;;;0.90;;
22417;SDS011;11376;50.932;4.442;2022-07-05T02:25:23;2.30;;;0.70;;
22417;SDS011;11376;50.932;4.442;2022-07-05T02:27:49;2.70;;;0.70;;
22417;SDS011;11376;50.932;4.442;2022-07-05T02:30:15;1.83;;;0.80;;
22417;SDS011;11376;50.932;4.442;2022-07-05T02:32:41;6.95;;;1.00;;
22417;SDS011;11376;50.932;4.442;2022-07-05T02:35:07;1.77;;;0.77;;
22417;SDS011;11376;50.932;4.442;2022-07-05T02:37:35;1.73;;;0.80;;
22417;SDS011;11376;50.932;4.442;2022-07-05T02:40:01;2.38;;;0.90;;
22417;SDS011;11376;50.932;4.442;2022-07-05T02:42:27;3.67;;;1.05;;
22417;SDS011;11376;50.932;4.442;2022-07-05T02:44:53;1.42;;;0.80;;
22417;SDS011;11376;50.932;4.442;2022-07-05T02:47:18;2.55;;;0.82;;
22417;SDS011;11376;50.932;4.442;2022-07-05T02:49:44;1.98;;;0.68;;
22417;SDS011;11376;50.932;4.442;2022-07-05T02:52:09;1.98;;;0.80;;
22417;SDS011;11376;50.932;4.442;2022-07-05T02:54:35;2.22;;;0.75;;
22417;SDS011;11376;50.932;4.442;2022-07-05T02:57:00;2.40;;;0.80;;
22417;SDS011;11376;50.932;4.442;2022-07-05T02:59:26;2.08;;;0.70;;
22417;SDS011;11376;50.932;4.442;2022-07-05T03:01:52;2.53;;;0.93;;
22417;SDS011;11376;50.932;4.442;2022-07-05T03:04:17;1.90;;;0.60;;
22417;SDS011;11376;50.932;4.442;2022-07-05T03:06:43;2.55;;;0.80;;
22417;SDS011;11376;50.932;4.442;2022-07-05T03:09:09;2.60;;;0.70;;
22417;SDS011;11376;50.932;4.442;2022-07-05T03:11:35;3.17;;;0.90;;
22417;SDS011;11376;50.932;4.442;2022-07-05T03:14:00;4.30;;;0.90;;
22417;SDS011;11376;50.932;4.442;2022-07-05T03:16:27;2.75;;;0.75;;
22417;SDS011;11376;50.932;4.442;2022-07-05T03:18:54;2.70;;;0.82;;
22417;SDS011;11376;50.932;4.442;2022-07-05T03:21:19;2.80;;;0.80;;
22417;SDS011;11376;50.932;4.442;2022-07-05T03:23:45;1.63;;;0.75;;
22417;SDS011;11376;50.932;4.442;2022-07-05T03:26:11;2.85;;;1.00;;
22417;SDS011;11376;50.932;4.442;2022-07-05T03:28:36;1.40;;;0.75;;
22417;SDS011;11376;50.932;4.442;2022-07-05T03:31:02;2.40;;;0.80;;
22417;SDS011;11376;50.932;4.442;2022-07-05T03:33:28;3.75;;;0.90;;
22417;SDS011;11376;50.932;4.442;2022-07-05T03:35:53;8.80;;;0.88;;
22417;SDS011;11376;50.932;4.442;2022-07-05T03:38:19;3.80;;;0.90;;
22417;SDS011;11376;50.932;4.442;2022-07-05T03:40:44;1.88;;;0.70;;
22417;SDS011;11376;50.932;4.442;2022-07-05T03:43:10;4.15;;;0.80;;
22417;SDS011;11376;50.932;4.442;2022-07-05T03:45:36;3.92;;;0.73;;
22417;SDS011;11376;50.932;4.442;2022-07-05T03:48:01;2.28;;;0.73;;
22417;SDS011;11376;50.932;4.442;2022-07-05T03:50:27;3.30;;;0.80;;
22417;SDS011;11376;50.932;4.442;2022-07-05T03:52:53;2.28;;;0.80;;
22417;SDS011;11376;50.932;4.442;2022-07-05T03:55:19;2.00;;;0.73;;
22417;SDS011;11376;50.932;4.442;2022-07-05T03:57:44;2.08;;;0.80;;
22417;SDS011;11376;50.932;4.442;2022-07-05T04:00:10;3.42;;;0.70;;
22417;SDS011;11376;50.932;4.442;2022-07-05T04:02:37;1.13;;;0.60;;
22417;SDS011;11376;50.932;4.442;2022-07-05T04:05:03;1.50;;;0.65;;
22417;SDS011;11376;50.932;4.442;2022-07-05T04:07:29;2.05;;;0.70;;
22417;SDS011;11376;50.932;4.442;2022-07-05T04:09:55;2.17;;;0.80;;
22417;SDS011;11376;50.932;4.442;2022-07-05T04:12:21;2.10;;;0.85;;
22417;SDS011;11376;50.932;4.442;2022-07-05T04:14:46;2.15;;;0.77;;
22417;SDS011;11376;50.932;4.442;2022-07-05T04:17:12;1.63;;;0.73;;
22417;SDS011;11376;50.932;4.442;2022-07-05T04:19:38;1.95;;;0.80;;
22417;SDS011;11376;50.932;4.442;2022-07-05T04:22:04;1.98;;;0.80;;
22417;SDS011;11376;50.932;4.442;2022-07-05T04:24:29;2.05;;;0.70;;
22417;SDS011;11376;50.932;4.442;2022-07-05T04:26:55;1.63;;;0.70;;
22417;SDS011;11376;50.932;4.442;2022-07-05T04:29:21;3.40;;;0.60;;
22417;SDS011;11376;50.932;4.442;2022-07-05T04:31:46;3.17;;;0.52;;
22417;SDS011;11376;50.932;4.442;2022-07-05T04:34:12;2.10;;;0.80;;
22417;SDS011;11376;50.932;4.442;2022-07-05T04:36:38;3.85;;;0.88;;
22417;SDS011;11376;50.932;4.442;2022-07-05T04:39:05;2.63;;;0.80;;
22417;SDS011;11376;50.932;4.442;2022-07-05T04:41:31;2.42;;;0.90;;
22417;SDS011;11376;50.932;4.442;2022-07-05T04:43:57;2.47;;;0.80;;
22417;SDS011;11376;50.932;4.442;2022-07-05T04:46:23;3.30;;;0.90;;
22417;SDS011;11376;50.932;4.442;2022-07-05T04:48:48;2.95;;;0.90;;
22417;SDS011;11376;50.932;4.442;2022-07-05T04:51:14;3.42;;;0.90;;
22417;SDS011;11376;50.932;4.442;2022-07-05T04:53:40;2.70;;;0.98;;
22417;SDS011;11376;50.932;4.442;2022-07-05T04:56:06;1.75;;;1.00;;
22417;SDS011;11376;50.932;4.442;2022-07-05T04:58:32;2.80;;;0.88;;
22417;SDS011;11376;50.932;4.442;2022-07-05T05:00:58;3.65;;;0.90;;
22417;SDS011;11376;50.932;4.442;2022-07-05T05:03:24;4.70;;;1.00;;
22417;SDS011;11376;50.932;4.442;2022-07-05T05:05:50;2.83;;;0.80;;
22417;SDS011;11376;50.932;4.442;2022-07-05T05:08:15;2.83;;;0.82;;
22417;SDS011;11376;50.932;4.442;2022-07-05T05:10:41;3.83;;;1.15;;
22417;SDS011;11376;50.932;4.442;2022-07-05T05:13:06;2.47;;;0.93;;
22417;SDS011;11376;50.932;4.442;2022-07-05T05:15:32;4.40;;;1.20;;
22417;SDS011;11376;50.932;4.442;2022-07-05T05:17:58;5.32;;;1.20;;
22417;SDS011;11376;50.932;4.442;2022-07-05T05:20:23;5.15;;;1.02;;
22417;SDS011;11376;50.932;4.442;2022-07-05T05:22:49;3.65;;;1.10;;
22417;SDS011;11376;50.932;4.442;2022-07-05T05:25:15;5.25;;;1.35;;
22417;SDS011;11376;50.932;4.442;2022-07-05T05:27:47;3.90;;;1.10;;
22417;SDS011;11376;50.932;4.442;2022-07-05T05:30:16;3.28;;;1.10;;
22417;SDS011;11376;50.932;4.442;2022-07-05T05:32:42;4.78;;;1.13;;
22417;SDS011;11376;50.932;4.442;2022-07-05T05:35:07;3.50;;;1.10;;
22417;SDS011;11376;50.932;4.442;2022-07-05T05:37:49;6.97;;;1.38;;
22417;SDS011;11376;50.932;4.442;2022-07-05T05:40:16;6.40;;;1.20;;
22417;SDS011;11376;50.932;4.442;2022-07-05T05:42:42;4.30;;;1.65;;
22417;SDS011;11376;50.932;4.442;2022-07-05T05:45:07;6.28;;;1.20;;
22417;SDS011;11376;50.932;4.442;2022-07-05T05:47:41;6.80;;;1.40;;
22417;SDS011;11376;50.932;4.442;2022-07-05T05:50:26;8.77;;;1.70;;
22417;SDS011;11376;50.932;4.442;2022-07-05T05:52:53;6.47;;;1.75;;
22417;SDS011;11376;50.932;4.442;2022-07-05T05:55:19;6.63;;;1.70;;
22417;SDS011;11376;50.932;4.442;2022-07-05T05:57:46;7.38;;;2.10;;
22417;SDS011;11376;50.932;4.442;2022-07-05T06:00:12;11.38;;;2.33;;
22417;SDS011;11376;50.932;4.442;2022-07-05T06:02:40;12.07;;;3.08;;
22417;SDS011;11376;50.932;4.442;2022-07-05T06:05:06;12.50;;;3.00;;
22417;SDS011;11376;50.932;4.442;2022-07-05T06:07:54;19.92;;;4.30;;
22417;SDS011;11376;50.932;4.442;2022-07-05T06:10:26;14.35;;;3.80;;
22417;SDS011;11376;50.932;4.442;2022-07-05T06:12:54;19.55;;;5.07;;
22417;SDS011;11376;50.932;4.442;2022-07-05T06:15:21;23.88;;;4.95;;
22417;SDS011;11376;50.932;4.442;2022-07-05T06:17:47;23.95;;;5.20;;
22417;SDS011;11376;50.932;4.442;2022-07-05T06:20:14;18.55;;;4.22;;
22417;SDS011;11376;50.932;4.442;2022-07-05T06:22:41;17.92;;;3.90;;
22417;SDS011;11376;50.932;4.442;2022-07-05T06:25:07;18.30;;;4.10;;
22417;SDS011;11376;50.932;4.442;2022-07-05T06:27:40;20.55;;;3.95;;
22417;SDS011;11376;50.932;4.442;2022-07-05T06:30:07;13.65;;;3.80;;
22417;SDS011;11376;50.932;4.442;2022-07-05T06:32:33;13.38;;;3.10;;
22417;SDS011;11376;50.932;4.442;2022-07-05T06:34:59;13.57;;;3.40;;
22417;SDS011;11376;50.932;4.442;2022-07-05T06:37:24;13.82;;;3.22;;
22417;SDS011;11376;50.932;4.442;2022-07-05T06:39:50;9.45;;;2.45;;
22417;SDS011;11376;50.932;4.442;2022-07-05T06:42:15;16.98;;;3.03;;
22417;SDS011;11376;50.932;4.442;2022-07-05T06:44:41;12.57;;;2.60;;
22417;SDS011;11376;50.932;4.442;2022-07-05T06:47:07;10.35;;;2.33;;
22417;SDS011;11376;50.932;4.442;2022-07-05T06:49:33;10.80;;;2.55;;
22417;SDS011;11376;50.932;4.442;2022-07-05T06:51:58;10.45;;;2.50;;
22417;SDS011;11376;50.932;4.442;2022-07-05T06:54:24;6.90;;;2.10;;
22417;SDS011;11376;50.932;4.442;2022-07-05T06:56:50;7.65;;;1.85;;
22417;SDS011;11376;50.932;4.442;2022-07-05T06:59:15;10.85;;;1.95;;
22417;SDS011;11376;50.932;4.442;2022-07-05T07:01:41;7.05;;;1.75;;
22417;SDS011;11376;50.932;4.442;2022-07-05T07:04:06;6.32;;;1.70;;
22417;SDS011;11376;50.932;4.442;2022-07-05T07:06:32;7.07;;;1.75;;
22417;SDS011;11376;50.932;4.442;2022-07-05T07:08:57;9.18;;;1.70;;
22417;SDS011;11376;50.932;4.442;2022-07-05T07:11:42;6.80;;;1.50;;
22417;SDS011;11376;50.932;4.442;2022-07-05T07:14:07;7.85;;;1.60;;
22417;SDS011;11376;50.932;4.442;2022-07-05T07:16:33;8.70;;;1.60;;
22417;SDS011;11376;50.932;4.442;2022-07-05T07:18:58;8.48;;;1.65;;
22417;SDS011;11376;50.932;4.442;2022-07-05T07:21:24;5.97;;;1.25;;
22417;SDS011;11376;50.932;4.442;2022-07-05T07:23:49;6.57;;;1.20;;
22417;SDS011;11376;50.932;4.442;2022-07-05T07:26:15;6.63;;;1.50;;
22417;SDS011;11376;50.932;4.442;2022-07-05T07:28:40;3.35;;;1.10;;
22417;SDS011;11376;50.932;4.442;2022-07-05T07:31:06;5.28;;;1.20;;
22417;SDS011;11376;50.932;4.442;2022-07-05T07:33:33;6.60;;;1.23;;
22417;SDS011;11376;50.932;4.442;2022-07-05T07:35:58;2.80;;;1.00;;
22417;SDS011;11376;50.932;4.442;2022-07-05T07:38:24;4.25;;;1.27;;
22417;SDS011;11376;50.932;4.442;2022-07-05T07:40:51;4.32;;;1.10;;
22417;SDS011;11376;50.932;4.442;2022-07-05T07:43:17;4.28;;;1.27;;
22417;SDS011;11376;50.932;4.442;2022-07-05T07:45:42;5.22;;;1.10;;
22417;SDS011;11376;50.932;4.442;2022-07-05T07:48:08;4.35;;;1.10;;
22417;SDS011;11376;50.932;4.442;2022-07-05T07:50:34;5.57;;;1.00;;
22417;SDS011;11376;50.932;4.442;2022-07-05T07:53:00;3.75;;;1.02;;
22417;SDS011;11376;50.932;4.442;2022-07-05T07:55:25;4.03;;;1.10;;
22417;SDS011;11376;50.932;4.442;2022-07-05T07:57:51;2.42;;;0.82;;
22417;SDS011;11376;50.932;4.442;2022-07-05T08:00:17;3.92;;;1.10;;
22417;SDS011;11376;50.932;4.442;2022-07-05T08:02:43;3.65;;;1.20;;
22417;SDS011;11376;50.932;4.442;2022-07-05T08:05:09;4.22;;;1.02;;
22417;SDS011;11376;50.932;4.442;2022-07-05T08:07:37;3.03;;;0.90;;
22417;SDS011;11376;50.932;4.442;2022-07-05T08:10:06;3.45;;;1.10;;
22417;SDS011;11376;50.932;4.442;2022-07-05T08:12:32;2.53;;;0.80;;
22417;SDS011;11376;50.932;4.442;2022-07-05T08:14:58;3.50;;;1.10;;
22417;SDS011;11376;50.932;4.442;2022-07-05T08:17:23;3.55;;;1.00;;
22417;SDS011;11376;50.932;4.442;2022-07-05T08:19:49;2.50;;;0.90;;
22417;SDS011;11376;50.932;4.442;2022-07-05T08:22:34;3.63;;;0.80;;
22417;SDS011;11376;50.932;4.442;2022-07-05T08:25:00;2.88;;;0.80;;
22417;SDS011;11376;50.932;4.442;2022-07-05T08:27:26;2.28;;;0.80;;
22417;SDS011;11376;50.932;4.442;2022-07-05T08:29:51;2.53;;;0.80;;
22417;SDS011;11376;50.932;4.442;2022-07-05T08:32:17;3.25;;;0.80;;
22417;SDS011;11376;50.932;4.442;2022-07-05T08:34:42;4.53;;;1.00;;
22417;SDS011;11376;50.932;4.442;2022-07-05T08:37:08;2.60;;;1.02;;
22417;SDS011;11376;50.932;4.442;2022-07-05T08:39:34;5.38;;;0.82;;
22417;SDS011;11376;50.932;4.442;2022-07-05T08:42:00;2.15;;;0.80;;
22417;SDS011;11376;50.932;4.442;2022-07-05T08:44:27;2.78;;;0.80;;
22417;SDS011;11376;50.932;4.442;2022-07-05T08:46:55;2.83;;;1.00;;
22417;SDS011;11376;50.932;4.442;2022-07-05T08:49:25;3.17;;;1.00;;
22417;SDS011;11376;50.932;4.442;2022-07-05T08:51:52;2.50;;;0.80;;
22417;SDS011;11376;50.932;4.442;2022-07-05T08:54:19;3.42;;;0.95;;
22417;SDS011;11376;50.932;4.442;2022-07-05T08:56:46;2.92;;;0.82;;
22417;SDS011;11376;50.932;4.442;2022-07-05T08:59:12;3.90;;;0.82;;
22417;SDS011;11376;50.932;4.442;2022-07-05T09:01:38;3.67;;;0.98;;
22417;SDS011;11376;50.932;4.442;2022-07-05T09:04:05;2.75;;;0.85;;
22417;SDS011;11376;50.932;4.442;2022-07-05T09:06:32;3.53;;;0.90;;
22417;SDS011;11376;50.932;4.442;2022-07-05T09:09:01;3.22;;;0.88;;
22417;SDS011;11376;50.932;4.442;2022-07-05T09:11:38;1.65;;;0.80;;
22417;SDS011;11376;50.932;4.442;2022-07-05T09:14:06;4.38;;;1.00;;
22417;SDS011;11376;50.932;4.442;2022-07-05T09:16:43;2.85;;;1.00;;
22417;SDS011;11376;50.932;4.442;2022-07-05T09:19:09;3.63;;;1.02;;
22417;SDS011;11376;50.932;4.442;2022-07-05T09:21:35;2.08;;;0.70;;
22417;SDS011;11376;50.932;4.442;2022-07-05T09:24:02;4.18;;;1.00;;
22417;SDS011;11376;50.932;4.442;2022-07-05T09:26:46;2.60;;;0.80;;
22417;SDS011;11376;50.932;4.442;2022-07-05T09:29:18;1.80;;;0.70;;
22417;SDS011;11376;50.932;4.442;2022-07-05T09:31:45;2.88;;;1.00;;
22417;SDS011;11376;50.932;4.442;2022-07-05T09:34:18;3.85;;;1.00;;
22417;SDS011;11376;50.932;4.442;2022-07-05T09:36:48;2.00;;;0.77;;
22417;SDS011;11376;50.932;4.442;2022-07-05T09:39:14;2.30;;;0.70;;
22417;SDS011;11376;50.932;4.442;2022-07-05T09:41:40;3.13;;;0.75;;
22417;SDS011;11376;50.932;4.442;2022-07-05T09:44:05;3.00;;;0.88;;
22417;SDS011;11376;50.932;4.442;2022-07-05T09:46:31;2.20;;;0.98;;
22417;SDS011;11376;50.932;4.442;2022-07-05T09:48:57;2.20;;;0.80;;
22417;SDS011;11376;50.932;4.442;2022-07-05T09:51:23;3.03;;;1.02;;
22417;SDS011;11376;50.932;4.442;2022-07-05T09:56:16;2.65;;;0.85;;
22417;SDS011;11376;50.932;4.442;2022-07-05T09:58:42;2.28;;;0.80;;
22417;SDS011;11376;50.932;4.442;2022-07-05T10:01:22;4.15;;;1.00;;
22417;SDS011;11376;50.932;4.442;2022-07-05T10:03:54;2.83;;;0.80;;
22417;SDS011;11376;50.932;4.442;2022-07-05T10:06:26;2.22;;;0.70;;
22417;SDS011;11376;50.932;4.442;2022-07-05T10:08:54;2.33;;;0.80;;
22417;SDS011;11376;50.932;4.442;2022-07-05T10:11:21;2.70;;;0.70;;
22417;SDS011;11376;50.932;4.442;2022-07-05T10:13:48;3.15;;;0.88;;
22417;SDS011;11376;50.932;4.442;2022-07-05T10:16:19;2.42;;;0.90;;
22417;SDS011;11376;50.932;4.442;2022-07-05T10:18:50;2.55;;;0.80;;
22417;SDS011;11376;50.932;4.442;2022-07-05T10:21:20;2.92;;;0.80;;
22417;SDS011;11376;50.932;4.442;2022-07-05T10:23:47;3.13;;;0.90;;
22417;SDS011;11376;50.932;4.442;2022-07-05T10:26:14;2.17;;;0.80;;
22417;SDS011;11376;50.932;4.442;2022-07-05T10:28:41;1.77;;;0.80;;
22417;SDS011;11376;50.932;4.442;2022-07-05T10:31:11;2.83;;;0.80;;
22417;SDS011;11376;50.932;4.442;2022-07-05T10:33:39;3.15;;;0.77;;
22417;SDS011;11376;50.932;4.442;2022-07-05T10:36:05;1.85;;;0.95;;
22417;SDS011;11376;50.932;4.442;2022-07-05T10:38:35;2.92;;;0.80;;
22417;SDS011;11376;50.932;4.442;2022-07-05T10:41:02;2.33;;;0.98;;
22417;SDS011;11376;50.932;4.442;2022-07-05T10:43:29;2.85;;;0.82;;
22417;SDS011;11376;50.932;4.442;2022-07-05T10:45:55;2.25;;;0.77;;
22417;SDS011;11376;50.932;4.442;2022-07-05T10:48:22;1.73;;;0.80;;
22417;SDS011;11376;50.932;4.442;2022-07-05T10:50:58;2.10;;;0.65;;
22417;SDS011;11376;50.932;4.442;2022-07-05T10:58:37;3.40;;;1.00;;
22417;SDS011;11376;50.932;4.442;2022-07-05T11:03:44;2.55;;;1.00;;
22417;SDS011;11376;50.932;4.442;2022-07-05T11:06:27;1.73;;;0.90;;
22417;SDS011;11376;50.932;4.442;2022-07-05T11:11:34;2.60;;;1.00;;
22417;SDS011;11376;50.932;4.442;2022-07-05T11:14:04;2.45;;;1.08;;
22417;SDS011;11376;50.932;4.442;2022-07-05T11:16:46;2.95;;;0.90;;
22417;SDS011;11376;50.932;4.442;2022-07-05T11:19:13;2.40;;;0.85;;
22417;SDS011;11376;50.932;4.442;2022-07-05T11:22:00;2.00;;;1.10;;
22417;SDS011;11376;50.932;4.442;2022-07-05T11:24:28;2.13;;;1.00;;
22417;SDS011;11376;50.932;4.442;2022-07-05T11:26:59;3.80;;;1.20;;
22417;SDS011;11376;50.932;4.442;2022-07-05T11:32:14;2.92;;;1.10;;
22417;SDS011;11376;50.932;4.442;2022-07-05T11:34:46;2.78;;;1.02;;
22417;SDS011;11376;50.932;4.442;2022-07-05T11:39:43;2.83;;;1.30;;
22417;SDS011;11376;50.932;4.442;2022-07-05T11:42:20;2.63;;;1.13;;
22417;SDS011;11376;50.932;4.442;2022-07-05T11:44:49;2.45;;;0.73;;
22417;SDS011;11376;50.932;4.442;2022-07-05T11:47:17;2.33;;;0.95;;
22417;SDS011;11376;50.932;4.442;2022-07-05T11:49:52;2.85;;;1.00;;
22417;SDS011;11376;50.932;4.442;2022-07-05T11:52:24;3.22;;;1.00;;
22417;SDS011;11376;50.932;4.442;2022-07-05T11:54:54;2.97;;;1.00;;
22417;SDS011;11376;50.932;4.442;2022-07-05T11:57:21;2.90;;;0.88;;
22417;SDS011;11376;50.932;4.442;2022-07-05T11:59:48;1.83;;;0.95;;
22417;SDS011;11376;50.932;4.442;2022-07-05T12:02:13;3.00;;;1.00;;
22417;SDS011;11376;50.932;4.442;2022-07-05T12:04:39;2.15;;;1.00;;
22417;SDS011;11376;50.932;4.442;2022-07-05T12:07:05;2.03;;;0.93;;
22417;SDS011;11376;50.932;4.442;2022-07-05T12:09:32;3.50;;;1.00;;
22417;SDS011;11376;50.932;4.442;2022-07-05T12:12:21;1.90;;;1.00;;
22417;SDS011;11376;50.932;4.442;2022-07-05T12:15:07;3.10;;;1.10;;
22417;SDS011;11376;50.932;4.442;2022-07-05T12:17:38;2.03;;;0.80;;
22417;SDS011;11376;50.932;4.442;2022-07-05T12:20:05;2.15;;;0.93;;
22417;SDS011;11376;50.932;4.442;2022-07-05T12:22:40;2.40;;;1.00;;
22417;SDS011;11376;50.932;4.442;2022-07-05T12:25:07;1.77;;;0.85;;
22417;SDS011;11376;50.932;4.442;2022-07-05T12:27:36;2.03;;;0.90;;
22417;SDS011;11376;50.932;4.442;2022-07-05T12:30:04;1.98;;;0.80;;
22417;SDS011;11376;50.932;4.442;2022-07-05T12:32:31;2.47;;;1.00;;
22417;SDS011;11376;50.932;4.442;2022-07-05T12:34:57;2.97;;;0.88;;
22417;SDS011;11376;50.932;4.442;2022-07-05T12:37:24;2.67;;;0.88;;
22417;SDS011;11376;50.932;4.442;2022-07-05T12:40:07;2.35;;;1.00;;
22417;SDS011;11376;50.932;4.442;2022-07-05T12:42:35;2.70;;;1.02;;
22417;SDS011;11376;50.932;4.442;2022-07-05T12:45:14;3.88;;;1.15;;
22417;SDS011;11376;50.932;4.442;2022-07-05T12:48:14;2.03;;;0.88;;
22417;SDS011;11376;50.932;4.442;2022-07-05T12:50:46;1.75;;;0.70;;
22417;SDS011;11376;50.932;4.442;2022-07-05T12:53:13;2.65;;;0.90;;
22417;SDS011;11376;50.932;4.442;2022-07-05T12:55:59;3.00;;;0.80;;
22417;SDS011;11376;50.932;4.442;2022-07-05T12:58:47;2.45;;;0.90;;
22417;SDS011;11376;50.932;4.442;2022-07-05T13:01:26;2.42;;;1.00;;
22417;SDS011;11376;50.932;4.442;2022-07-05T13:04:07;3.20;;;1.00;;
22417;SDS011;11376;50.932;4.442;2022-07-05T13:06:50;2.13;;;0.88;;
22417;SDS011;11376;50.932;4.442;2022-07-05T13:12:04;2.67;;;0.93;;
22417;SDS011;11376;50.932;4.442;2022-07-05T13:14:30;5.47;;;0.88;;
22417;SDS011;11376;50.932;4.442;2022-07-05T13:16:56;1.95;;;0.80;;
22417;SDS011;11376;50.932;4.442;2022-07-05T13:19:21;1.77;;;0.82;;
22417;SDS011;11376;50.932;4.442;2022-07-05T13:21:47;2.47;;;0.82;;
22417;SDS011;11376;50.932;4.442;2022-07-05T13:24:12;2.40;;;0.80;;
22417;SDS011;11376;50.932;4.442;2022-07-05T13:26:38;2.22;;;0.80;;
22417;SDS011;11376;50.932;4.442;2022-07-05T13:29:03;2.20;;;0.70;;
22417;SDS011;11376;50.932;4.442;2022-07-05T13:31:29;1.73;;;0.70;;
22417;SDS011;11376;50.932;4.442;2022-07-05T13:33:55;1.10;;;0.70;;
22417;SDS011;11376;50.932;4.442;2022-07-05T13:36:22;1.92;;;0.75;;
22417;SDS011;11376;50.932;4.442;2022-07-05T13:38:48;2.38;;;0.70;;
22417;SDS011;11376;50.932;4.442;2022-07-05T13:41:13;2.38;;;0.70;;
22417;SDS011;11376;50.932;4.442;2022-07-05T13:43:39;1.65;;;0.75;;
22417;SDS011;11376;50.932;4.442;2022-07-05T13:46:04;0.95;;;0.60;;
22417;SDS011;11376;50.932;4.442;2022-07-05T13:48:31;2.65;;;0.80;;
22417;SDS011;11376;50.932;4.442;2022-07-05T13:50:58;2.25;;;0.70;;
22417;SDS011;11376;50.932;4.442;2022-07-05T13:53:23;2.05;;;0.80;;
22417;SDS011;11376;50.932;4.442;2022-07-05T13:55:49;1.58;;;0.70;;
22417;SDS011;11376;50.932;4.442;2022-07-05T13:58:14;1.58;;;0.73;;
22417;SDS011;11376;50.932;4.442;2022-07-05T14:00:40;0.90;;;0.60;;
22417;SDS011;11376;50.932;4.442;2022-07-05T14:03:06;1.45;;;0.60;;
22417;SDS011;11376;50.932;4.442;2022-07-05T14:05:31;1.90;;;0.63;;
22417;SDS011;11376;50.932;4.442;2022-07-05T14:07:57;3.15;;;0.70;;
22417;SDS011;11376;50.932;4.442;2022-07-05T14:10:23;1.20;;;0.60;;
22417;SDS011;11376;50.932;4.442;2022-07-05T14:12:48;1.85;;;0.80;;
22417;SDS011;11376;50.932;4.442;2022-07-05T14:15:14;2.40;;;0.80;;
22417;SDS011;11376;50.932;4.442;2022-07-05T14:17:39;2.08;;;0.73;;
22417;SDS011;11376;50.932;4.442;2022-07-05T14:20:05;1.65;;;0.60;;
22417;SDS011;11376;50.932;4.442;2022-07-05T14:22:31;1.92;;;0.77;;
22417;SDS011;11376;50.932;4.442;2022-07-05T14:24:57;2.83;;;0.80;;
22417;SDS011;11376;50.932;4.442;2022-07-05T14:27:22;1.95;;;0.70;;
22417;SDS011;11376;50.932;4.442;2022-07-05T14:29:48;1.48;;;0.57;;
22417;SDS011;11376;50.932;4.442;2022-07-05T14:32:13;2.15;;;0.70;;
22417;SDS011;11376;50.932;4.442;2022-07-05T14:34:39;2.13;;;0.55;;
22417;SDS011;11376;50.932;4.442;2022-07-05T14:37:05;1.63;;;0.80;;
22417;SDS011;11376;50.932;4.442;2022-07-05T14:39:31;1.20;;;0.60;;
22417;SDS011;11376;50.932;4.442;2022-07-05T14:41:56;1.80;;;0.68;;
22417;SDS011;11376;50.932;4.442;2022-07-05T14:44:22;1.63;;;0.60;;
22417;SDS011;11376;50.932;4.442;2022-07-05T14:46:47;1.77;;;0.68;;
22417;SDS011;11376;50.932;4.442;2022-07-05T14:49:13;1.17;;;0.40;;
22417;SDS011;11376;50.932;4.442;2022-07-05T14:51:39;1.35;;;0.55;;
22417;SDS011;11376;50.932;4.442;2022-07-05T14:54:04;1.58;;;0.60;;
22417;SDS011;11376;50.932;4.442;2022-07-05T14:56:30;0.88;;;0.43;;
22417;SDS011;11376;50.932;4.442;2022-07-05T14:58:55;2.22;;;0.88;;
22417;SDS011;11376;50.932;4.442;2022-07-05T15:01:21;1.98;;;0.68;;
22417;SDS011;11376;50.932;4.442;2022-07-05T15:03:47;1.50;;;0.60;;
22417;SDS011;11376;50.932;4.442;2022-07-05T15:06:12;2.13;;;0.63;;
22417;SDS011;11376;50.932;4.442;2022-07-05T15:08:38;1.85;;;0.60;;
22417;SDS011;11376;50.932;4.442;2022-07-05T15:11:04;1.55;;;0.50;;
22417;SDS011;11376;50.932;4.442;2022-07-05T15:13:30;1.25;;;0.45;;
22417;SDS011;11376;50.932;4.442;2022-07-05T15:15:56;0.93;;;0.45;;
22417;SDS011;11376;50.932;4.442;2022-07-05T15:18:23;1.40;;;0.50;;
22417;SDS011;11376;50.932;4.442;2022-07-05T15:20:49;1.15;;;0.50;;